Time;durP1;ratioP1;P1;durP2;ratioP2;P2;SDS_P1;SDS_P2;PMS_P1;PMS_P2;Temp;Humidity;BMP_temperature;BMP_pressure;BME280_temperature;BME280_humidity;BME280_pressure;Samples;Min_cycle;Max_cycle;Signal;HPM_P1;HPM_P2
2022/10/10 00:01:15;;;;;;;1.13;0.38;;;7.80;90.40;;;;;;4898569;29;20072;-87
2022/10/10 00:03:43;;;;;;;0.88;0.43;;;7.80;90.40;;;;;;4914433;29;20112;-87
2022/10/10 00:06:12;;;;;;;1.70;0.70;;;7.80;90.40;;;;;;4898779;29;20048;-88
2022/10/10 00:08:40;;;;;;;0.50;0.30;;;7.80;90.40;;;;;;4907245;29;20091;-87
2022/10/10 00:11:08;;;;;;;2.35;0.60;;;7.70;90.40;;;;;;4914102;29;20143;-88
2022/10/10 00:13:35;;;;;;;0.88;0.40;;;7.80;90.40;;;;;;4914269;29;20092;-87
2022/10/10 00:16:03;;;;;;;1.23;0.47;;;7.70;90.40;;;;;;4914122;29;20045;-87
2022/10/10 00:18:30;;;;;;;1.00;0.50;;;7.70;90.40;;;;;;4898523;29;20111;-88
2022/10/10 00:20:58;;;;;;;1.02;0.50;;;7.70;90.50;;;;;;4898464;29;20509;-88
2022/10/10 00:23:25;;;;;;;0.68;0.30;;;7.70;90.50;;;;;;4895196;29;20521;-88
2022/10/10 00:25:52;;;;;;;1.05;0.43;;;7.70;90.50;;;;;;4895009;29;20084;-88
2022/10/10 00:28:19;;;;;;;1.27;0.47;;;7.60;90.50;;;;;;4914035;29;20554;-88
2022/10/10 00:30:49;;;;;;;1.00;0.38;;;7.60;90.50;;;;;;4898511;29;20155;-88
2022/10/10 00:33:16;;;;;;;1.00;0.40;;;7.60;90.50;;;;;;4884984;29;20123;-88
2022/10/10 00:35:43;;;;;;;1.33;0.45;;;7.60;90.50;;;;;;4898059;29;20132;-88
2022/10/10 00:38:10;;;;;;;0.88;0.50;;;7.60;90.60;;;;;;4884947;29;20140;-88
2022/10/10 00:40:56;;;;;;;0.82;0.40;;;7.60;90.60;;;;;;4879506;29;20101;-88
2022/10/10 00:43:25;;;;;;;1.83;0.60;;;7.60;90.60;;;;;;4894966;29;20053;-88
2022/10/10 00:45:52;;;;;;;1.50;0.50;;;7.50;90.60;;;;;;4879544;29;20061;-88
2022/10/10 00:48:34;;;;;;;1.02;0.47;;;7.50;90.60;;;;;;4897022;29;20056;-88
2022/10/10 00:51:11;;;;;;;1.27;0.35;;;7.50;90.60;;;;;;4913919;29;20045;-87
2022/10/10 00:53:42;;;;;;;1.88;0.60;;;7.50;90.60;;;;;;4897866;29;20082;-88
2022/10/10 00:56:11;;;;;;;2.00;0.52;;;7.50;90.70;;;;;;4898013;29;20041;-88
2022/10/10 00:58:41;;;;;;;1.85;0.50;;;7.50;90.70;;;;;;4882525;29;20052;-87
2022/10/10 01:01:09;;;;;;;1.33;0.50;;;7.50;90.70;;;;;;4907492;29;20489;-87
2022/10/10 01:03:36;;;;;;;1.98;0.77;;;7.40;90.70;;;;;;4882640;29;20049;-87
2022/10/10 01:06:04;;;;;;;1.17;0.40;;;7.40;90.70;;;;;;4882313;29;20056;-88
2022/10/10 01:08:31;;;;;;;1.17;0.50;;;7.40;90.70;;;;;;4913364;29;20053;-88
2022/10/10 01:11:16;;;;;;;1.33;0.60;;;7.40;90.70;;;;;;4897552;29;20140;-88
2022/10/10 01:13:56;;;;;;;0.82;0.38;;;7.40;90.70;;;;;;4897525;29;20100;-86
2022/10/10 01:16:41;;;;;;;0.95;0.40;;;7.40;90.70;;;;;;4897540;29;20437;-87
2022/10/10 01:19:29;;;;;;;0.85;0.38;;;7.30;90.70;;;;;;4897872;29;20040;-87
2022/10/10 01:22:25;;;;;;;1.35;0.50;;;7.40;90.70;;;;;;4897609;29;20099;-87
2022/10/10 01:25:01;;;;;;;0.95;0.30;;;7.30;90.70;;;;;;4895472;29;20144;-86
2022/10/10 01:27:36;;;;;;;1.10;0.38;;;7.30;90.70;;;;;;4899858;29;20123;-87
2022/10/10 01:30:13;;;;;;;0.95;0.35;;;7.30;90.70;;;;;;4897088;29;20055;-87
2022/10/10 01:33:00;;;;;;;1.35;0.63;;;7.30;90.70;;;;;;4903973;29;20055;-88
2022/10/10 01:36:14;;;;;;;1.65;0.52;;;7.30;90.70;;;;;;4913237;29;20059;-87
2022/10/10 01:38:51;;;;;;;1.10;0.40;;;7.30;90.70;;;;;;4840905;29;20054;-87
2022/10/10 01:41:31;;;;;;;1.08;0.38;;;7.30;90.80;;;;;;4853817;29;20094;-87
2022/10/10 01:43:58;;;;;;;1.58;0.52;;;7.30;90.70;;;;;;4887588;29;20136;-88
2022/10/10 01:46:25;;;;;;;1.20;0.40;;;7.30;90.70;;;;;;4897366;29;20045;-88
2022/10/10 01:48:56;;;;;;;1.60;0.40;;;7.30;90.80;;;;;;4904458;29;20135;-88
2022/10/10 01:51:35;;;;;;;1.33;0.45;;;7.30;90.80;;;;;;4912960;29;20045;-88
2022/10/10 01:54:37;;;;;;;1.13;0.38;;;7.30;90.80;;;;;;4897238;29;20048;-88
2022/10/10 01:57:18;;;;;;;0.90;0.40;;;7.30;90.80;;;;;;4897324;29;20045;-88
2022/10/10 02:00:11;;;;;;;0.82;0.30;;;7.30;91.10;;;;;;4881841;29;20521;-88
2022/10/10 02:02:47;;;;;;;1.08;0.45;;;7.30;90.80;;;;;;4897302;29;20052;-88
2022/10/10 02:05:33;;;;;;;0.57;0.35;;;7.30;90.80;;;;;;4878359;29;20490;-88
2022/10/10 02:08:07;;;;;;;0.80;0.40;;;7.30;90.80;;;;;;4901093;29;20509;-88
2022/10/10 02:10:47;;;;;;;0.63;0.30;;;7.20;90.80;;;;;;4902932;29;20044;-88
2022/10/10 02:13:16;;;;;;;1.25;0.50;;;7.20;90.80;;;;;;4893725;29;20101;-88
2022/10/10 02:15:47;;;;;;;1.13;0.50;;;7.20;90.80;;;;;;4892398;29;20145;-88
2022/10/10 02:18:19;;;;;;;0.70;0.30;;;7.20;90.80;;;;;;4911065;29;20037;-88
2022/10/10 02:20:47;;;;;;;1.13;0.45;;;7.20;90.80;;;;;;4912565;29;20044;-88
2022/10/10 02:23:16;;;;;;;1.60;0.60;;;7.20;90.90;;;;;;4881513;29;20111;-88
2022/10/10 02:25:50;;;;;;;1.23;0.40;;;7.20;90.90;;;;;;4897479;29;20048;-88
2022/10/10 02:28:40;;;;;;;1.30;0.73;;;7.20;90.90;;;;;;4896918;29;20048;-88
2022/10/10 02:31:12;;;;;;;0.80;0.30;;;7.20;90.90;;;;;;4908522;29;20091;-87
2022/10/10 02:33:55;;;;;;;0.70;0.50;;;7.20;90.90;;;;;;4896712;29;20045;-87
2022/10/10 02:36:24;;;;;;;0.73;0.32;;;7.20;91.20;;;;;;4912375;29;20079;-87
2022/10/10 02:38:52;;;;;;;1.23;0.50;;;7.10;90.90;;;;;;4889285;29;20049;-87
2022/10/10 02:41:21;;;;;;;1.20;0.40;;;7.20;91.00;;;;;;4883620;29;20053;-87
2022/10/10 02:43:49;;;;;;;0.77;0.40;;;7.10;91.00;;;;;;4904492;29;20052;-88
2022/10/10 02:46:17;;;;;;;1.60;0.50;;;7.10;91.00;;;;;;4916023;29;20084;-88
2022/10/10 02:48:44;;;;;;;0.80;0.40;;;7.10;91.00;;;;;;4900377;29;20052;-88
2022/10/10 02:51:14;;;;;;;0.60;0.30;;;7.20;91.00;;;;;;4900405;29;20059;-88
2022/10/10 02:53:41;;;;;;;0.95;0.40;;;7.10;91.00;;;;;;4899944;29;20426;-88
2022/10/10 02:56:08;;;;;;;1.27;0.47;;;7.10;91.00;;;;;;4899783;29;20092;-88
2022/10/10 02:58:35;;;;;;;0.90;0.40;;;7.10;91.00;;;;;;4900015;29;20054;-88
2022/10/10 03:01:02;;;;;;;0.95;0.35;;;7.10;91.00;;;;;;4899853;29;20044;-88
2022/10/10 03:03:30;;;;;;;1.17;0.50;;;7.00;91.00;;;;;;4903153;29;20052;-88
2022/10/10 03:05:57;;;;;;;1.42;0.77;;;7.00;91.00;;;;;;4912251;29;20087;-88
2022/10/10 03:08:24;;;;;;;1.20;0.40;;;7.10;91.10;;;;;;4909098;29;20569;-88
2022/10/10 03:10:59;;;;;;;0.85;0.20;;;7.10;91.10;;;;;;4899774;29;20104;-88
2022/10/10 03:13:27;;;;;;;0.63;0.32;;;7.10;91.10;;;;;;4891815;29;20093;-87
2022/10/10 03:15:54;;;;;;;1.40;0.52;;;7.00;91.10;;;;;;4900044;29;20513;-88
2022/10/10 03:18:22;;;;;;;1.15;0.50;;;7.00;91.10;;;;;;4899541;29;20044;-87
2022/10/10 03:20:54;;;;;;;0.60;0.40;;;7.00;91.10;;;;;;4884322;29;20104;-88
2022/10/10 03:23:23;;;;;;;2.10;1.15;;;7.00;91.10;;;;;;4872268;29;20144;-88
2022/10/10 03:25:50;;;;;;;1.23;0.55;;;7.00;91.10;;;;;;4899794;29;20409;-88
2022/10/10 03:28:24;;;;;;;1.02;0.40;;;7.00;91.10;;;;;;4899522;29;20418;-88
2022/10/10 03:30:51;;;;;;;0.80;0.40;;;7.00;91.20;;;;;;4899490;29;20633;-88
2022/10/10 03:33:18;;;;;;;1.05;0.40;;;7.00;91.20;;;;;;4899134;29;20044;-88
2022/10/10 03:35:45;;;;;;;0.60;0.30;;;7.00;91.20;;;;;;4905812;29;20068;-88
2022/10/10 03:38:13;;;;;;;1.35;0.55;;;6.90;91.10;;;;;;4898830;29;20044;-87
2022/10/10 03:40:42;;;;;;;1.23;0.50;;;7.00;91.20;;;;;;4900022;29;20485;-87
2022/10/10 03:43:13;;;;;;;1.65;0.90;;;6.90;91.20;;;;;;4893593;29;20072;-88
2022/10/10 03:45:42;;;;;;;1.10;0.47;;;6.90;91.40;;;;;;4899282;29;20049;-88
2022/10/10 03:48:09;;;;;;;0.80;0.40;;;6.90;91.20;;;;;;4899279;29;20053;-88
2022/10/10 03:50:37;;;;;;;1.65;0.52;;;6.90;91.20;;;;;;4899030;29;20390;-87
2022/10/10 03:53:04;;;;;;;0.80;0.40;;;6.90;91.20;;;;;;4898958;29;21948;-88
2022/10/10 03:55:33;;;;;;;0.75;0.57;;;6.90;91.20;;;;;;4901094;29;20055;-88
2022/10/10 03:58:00;;;;;;;1.30;0.50;;;6.90;91.30;;;;;;4899045;29;20072;-88
2022/10/10 04:00:27;;;;;;;1.17;0.40;;;6.80;91.20;;;;;;4898816;29;20040;-88
2022/10/10 04:02:54;;;;;;;1.83;0.30;;;6.80;91.30;;;;;;4899207;29;20048;-88
2022/10/10 04:05:24;;;;;;;1.00;0.50;;;6.80;91.30;;;;;;4874799;29;20048;-88
2022/10/10 04:07:51;;;;;;;0.98;0.40;;;6.80;91.30;;;;;;4885514;29;20040;-88
2022/10/10 04:10:18;;;;;;;0.80;0.40;;;6.80;91.30;;;;;;4903776;29;20096;-88
2022/10/10 04:12:45;;;;;;;1.02;0.50;;;6.80;91.40;;;;;;4914542;29;20156;-88
2022/10/10 04:15:12;;;;;;;1.40;0.45;;;6.70;91.30;;;;;;4898212;29;20045;-88
2022/10/10 04:17:39;;;;;;;1.63;0.60;;;6.70;91.30;;;;;;4898618;29;20053;-88
2022/10/10 04:20:06;;;;;;;1.40;0.50;;;6.70;91.40;;;;;;4898904;29;20076;-88
2022/10/10 04:22:33;;;;;;;1.60;0.70;;;6.70;91.40;;;;;;4898514;29;20053;-88
2022/10/10 04:25:00;;;;;;;0.95;0.40;;;6.70;91.40;;;;;;4911690;29;20044;-88
2022/10/10 04:27:27;;;;;;;2.10;0.70;;;6.70;91.40;;;;;;4914237;29;20048;-88
2022/10/10 04:29:54;;;;;;;0.98;0.50;;;6.60;91.40;;;;;;4898450;29;20131;-88
2022/10/10 04:32:24;;;;;;;0.93;0.40;;;6.60;91.50;;;;;;4882960;29;20052;-88
2022/10/10 04:34:51;;;;;;;0.93;0.40;;;6.60;91.50;;;;;;4898018;29;20072;-88
2022/10/10 04:37:18;;;;;;;1.38;0.50;;;6.60;91.50;;;;;;4901508;29;20044;-88
2022/10/10 04:39:45;;;;;;;1.13;0.50;;;6.60;91.50;;;;;;4901401;29;20082;-88
2022/10/10 04:42:12;;;;;;;1.10;0.50;;;6.50;91.50;;;;;;4887557;29;20064;-88
2022/10/10 04:44:39;;;;;;;0.90;0.47;;;6.60;91.50;;;;;;4898287;29;20088;-88
2022/10/10 04:47:06;;;;;;;1.13;0.40;;;6.50;91.50;;;;;;4898086;29;20151;-87
2022/10/10 04:49:33;;;;;;;1.13;0.47;;;6.50;91.50;;;;;;4913708;29;20053;-88
2022/10/10 04:52:00;;;;;;;1.40;0.50;;;6.50;91.50;;;;;;4901369;29;20082;-87
2022/10/10 04:54:27;;;;;;;1.05;0.30;;;6.50;91.60;;;;;;4901058;29;20044;-88
2022/10/10 04:56:54;;;;;;;1.77;0.50;;;6.50;91.60;;;;;;4885584;29;20060;-88
2022/10/10 04:59:21;;;;;;;1.17;0.40;;;6.40;91.60;;;;;;4901455;29;20051;-88
2022/10/10 05:01:48;;;;;;;0.88;0.40;;;6.40;91.60;;;;;;4916917;29;20051;-88
2022/10/10 05:04:18;;;;;;;0.68;0.40;;;6.40;91.60;;;;;;4900704;29;20056;-88
2022/10/10 05:06:45;;;;;;;1.42;0.40;;;6.40;91.60;;;;;;4901233;29;20056;-88
2022/10/10 05:09:12;;;;;;;1.02;0.30;;;6.40;91.60;;;;;;4898549;29;20052;-87
2022/10/10 05:11:39;;;;;;;1.98;0.55;;;6.40;91.60;;;;;;4916398;29;20056;-87
2022/10/10 05:14:06;;;;;;;0.80;0.40;;;6.30;91.60;;;;;;4907648;29;20040;-87
2022/10/10 05:16:33;;;;;;;1.40;0.50;;;6.30;91.60;;;;;;4900877;29;20040;-88
2022/10/10 05:19:00;;;;;;;0.98;0.45;;;6.30;91.70;;;;;;4885490;29;20052;-88
2022/10/10 05:21:27;;;;;;;1.17;0.43;;;6.30;91.70;;;;;;4900824;29;20056;-88
2022/10/10 05:23:54;;;;;;;1.10;0.40;;;6.30;91.70;;;;;;4913095;29;20052;-88
2022/10/10 05:26:21;;;;;;;0.45;0.22;;;6.30;91.70;;;;;;4913068;29;20068;-88
2022/10/10 05:28:49;;;;;;;1.10;0.40;;;6.20;91.70;;;;;;4916335;29;20134;-87
2022/10/10 05:31:16;;;;;;;1.25;0.60;;;6.20;91.70;;;;;;4916235;29;20063;-88
2022/10/10 05:33:44;;;;;;;1.52;0.60;;;6.20;91.70;;;;;;4912015;29;20044;-88
2022/10/10 05:36:12;;;;;;;2.35;0.60;;;6.20;91.70;;;;;;4916280;29;20095;-88
2022/10/10 05:38:40;;;;;;;1.50;0.52;;;6.20;91.70;;;;;;4885005;29;20044;-88
2022/10/10 05:41:08;;;;;;;0.80;0.35;;;6.20;91.70;;;;;;4889876;29;20048;-88
2022/10/10 05:43:35;;;;;;;1.20;0.52;;;6.20;91.70;;;;;;4916052;29;20059;-88
2022/10/10 05:46:03;;;;;;;0.85;0.40;;;6.20;91.80;;;;;;4889219;29;20053;-88
2022/10/10 05:48:30;;;;;;;1.25;0.50;;;6.10;91.70;;;;;;4900281;29;20052;-88
2022/10/10 05:50:58;;;;;;;1.35;0.40;;;6.20;91.80;;;;;;4884780;29;20056;-88
2022/10/10 05:53:26;;;;;;;1.08;0.63;;;6.10;91.70;;;;;;4895010;29;20044;-88
2022/10/10 05:55:54;;;;;;;1.30;0.60;;;6.10;91.70;;;;;;4900419;29;20075;-88
2022/10/10 05:58:26;;;;;;;1.73;0.70;;;6.10;91.70;;;;;;4912848;29;20048;-88
2022/10/10 06:00:53;;;;;;;1.17;0.50;;;6.10;91.70;;;;;;4916042;29;20044;-88
2022/10/10 06:03:20;;;;;;;1.73;0.70;;;6.10;91.70;;;;;;4900660;29;20056;-88
2022/10/10 06:05:50;;;;;;;1.48;0.52;;;6.10;91.70;;;;;;4900002;29;20147;-88
2022/10/10 06:08:18;;;;;;;1.70;0.60;;;6.10;91.70;;;;;;4899281;29;20084;-88
2022/10/10 06:10:45;;;;;;;2.15;0.60;;;6.10;91.70;;;;;;4893508;29;20056;-88
2022/10/10 06:13:14;;;;;;;1.63;0.65;;;6.10;91.70;;;;;;4904020;29;20044;-88
2022/10/10 06:15:50;;;;;;;1.85;0.80;;;6.10;91.70;;;;;;4903649;29;20096;-88
2022/10/10 06:18:17;;;;;;;1.25;0.50;;;6.20;91.70;;;;;;4900496;29;20051;-87
2022/10/10 06:20:45;;;;;;;1.35;0.50;;;6.20;91.70;;;;;;4919600;29;20047;-88
2022/10/10 06:23:12;;;;;;;1.92;0.60;;;6.20;91.70;;;;;;4903326;29;20048;-87
2022/10/10 06:25:39;;;;;;;1.50;0.60;;;6.20;91.70;;;;;;4908077;29;20143;-87
2022/10/10 06:28:08;;;;;;;1.58;0.52;;;6.20;91.70;;;;;;4919492;29;20056;-88
2022/10/10 06:30:43;;;;;;;1.10;0.43;;;6.20;91.60;;;;;;4903690;29;20059;-88
2022/10/10 06:33:11;;;;;;;1.15;0.52;;;6.30;91.60;;;;;;4919260;29;20059;-88
2022/10/10 06:35:43;;;;;;;1.35;0.50;;;6.30;91.60;;;;;;4919192;29;20058;-88
2022/10/10 06:38:12;;;;;;;1.17;0.45;;;6.40;91.60;;;;;;4903857;29;20099;-88
2022/10/10 06:40:39;;;;;;;0.93;0.35;;;6.40;91.60;;;;;;4913944;29;20044;-88
2022/10/10 06:43:10;;;;;;;0.90;0.50;;;6.40;91.50;;;;;;4903382;29;20048;-88
2022/10/10 06:45:40;;;;;;;1.63;0.50;;;6.50;91.50;;;;;;4899757;29;20048;-87
2022/10/10 06:48:07;;;;;;;0.93;0.50;;;6.50;91.50;;;;;;4887764;29;20107;-88
2022/10/10 06:50:35;;;;;;;1.23;0.50;;;6.60;91.50;;;;;;4903598;29;20059;-88
2022/10/10 06:53:02;;;;;;;0.85;0.52;;;6.60;91.40;;;;;;4903377;29;20048;-88
2022/10/10 06:55:29;;;;;;;1.10;0.40;;;6.70;91.40;;;;;;4902841;29;20103;-88
2022/10/10 06:57:57;;;;;;;2.03;0.60;;;6.70;91.40;;;;;;4903242;29;20139;-88
2022/10/10 07:00:24;;;;;;;1.05;0.52;;;6.80;91.30;;;;;;4903164;29;20075;-87
2022/10/10 07:02:52;;;;;;;1.02;0.40;;;6.90;91.30;;;;;;4913785;29;20044;-88
2022/10/10 07:05:22;;;;;;;0.88;0.47;;;6.90;91.30;;;;;;4896333;29;20052;-88
2022/10/10 07:07:51;;;;;;;0.82;0.40;;;7.00;91.30;;;;;;4897502;29;20135;-88
2022/10/10 07:10:19;;;;;;;0.73;0.30;;;7.10;91.20;;;;;;4898034;29;20091;-88
2022/10/10 07:12:46;;;;;;;0.73;0.45;;;7.10;91.20;;;;;;4897666;29;20118;-88
2022/10/10 07:15:13;;;;;;;1.02;0.47;;;7.20;91.20;;;;;;4902486;29;20052;-89
2022/10/10 07:17:40;;;;;;;1.50;0.70;;;7.30;91.10;;;;;;4902947;29;20075;-88
2022/10/10 07:20:07;;;;;;;2.17;0.65;;;7.40;91.10;;;;;;4902770;29;20043;-87
2022/10/10 07:22:34;;;;;;;0.95;0.43;;;7.40;91.00;;;;;;4887131;29;20135;-85
2022/10/10 07:25:02;;;;;;;1.63;0.50;;;7.50;91.00;;;;;;4918142;29;20441;-85
2022/10/10 07:27:29;;;;;;;0.80;0.40;;;7.60;90.90;;;;;;4916931;29;20052;-86
2022/10/10 07:29:56;;;;;;;1.98;1.05;;;7.70;90.90;;;;;;4880946;29;20067;-86
2022/10/10 07:32:23;;;;;;;2.10;0.73;;;7.80;90.90;;;;;;4896562;29;20056;-90
2022/10/10 07:34:50;;;;;;;1.40;0.60;;;7.80;90.80;;;;;;4900010;29;20054;-89
2022/10/10 07:37:17;;;;;;;1.45;0.70;;;8.00;90.80;;;;;;4911564;29;20397;-89
2022/10/10 07:39:44;;;;;;;1.10;0.50;;;8.00;90.80;;;;;;4918137;29;20052;-89
2022/10/10 07:42:11;;;;;;;1.45;0.52;;;8.10;90.70;;;;;;4915034;29;20043;-89
2022/10/10 07:44:38;;;;;;;2.13;0.70;;;8.20;90.70;;;;;;4918214;29;20151;-89
2022/10/10 07:47:08;;;;;;;1.00;0.50;;;8.30;90.70;;;;;;4902606;29;20197;-89
2022/10/10 07:49:35;;;;;;;1.40;0.63;;;8.40;90.60;;;;;;4902363;29;20520;-91
2022/10/10 07:52:03;;;;;;;1.58;0.70;;;8.50;90.60;;;;;;4886644;29;20056;-89
2022/10/10 07:54:30;;;;;;;1.40;0.60;;;8.60;90.60;;;;;;4894818;29;20044;-89
2022/10/10 07:56:57;;;;;;;2.25;0.73;;;8.70;90.60;;;;;;4917897;29;20124;-90
2022/10/10 07:59:25;;;;;;;1.80;0.70;;;8.80;90.60;;;;;;4902269;29;20138;-89
2022/10/10 08:01:51;;;;;;;1.55;0.80;;;8.90;90.50;;;;;;4901937;29;20048;-89
2022/10/10 08:04:19;;;;;;;1.88;0.70;;;9.00;90.50;;;;;;4901688;29;20052;-89
2022/10/10 08:06:47;;;;;;;2.10;0.60;;;9.10;90.40;;;;;;4917989;29;20056;-89
2022/10/10 08:09:14;;;;;;;1.63;0.50;;;9.30;90.40;;;;;;4902576;29;20460;-87
2022/10/10 08:11:41;;;;;;;2.22;0.98;;;9.40;90.30;;;;;;4901987;29;20052;-89
2022/10/10 08:14:08;;;;;;;1.98;0.98;;;9.60;90.20;;;;;;4901800;29;20058;-89
2022/10/10 08:16:35;;;;;;;4.00;1.35;;;9.80;90.20;;;;;;4886312;29;20079;-89
2022/10/10 08:19:03;;;;;;;2.55;1.58;;;10.00;90.00;;;;;;4908504;29;20048;-89
2022/10/10 08:21:30;;;;;;;3.40;1.52;;;10.30;90.00;;;;;;4908373;29;20044;-88
2022/10/10 08:23:57;;;;;;;6.78;1.95;;;10.40;89.70;;;;;;4901696;29;20448;-89
2022/10/10 08:26:27;;;;;;;4.40;1.23;;;10.50;89.60;;;;;;4885846;29;20139;-86
2022/10/10 08:28:57;;;;;;;2.10;1.15;;;10.60;89.60;;;;;;4900720;29;20127;-85
2022/10/10 08:31:24;;;;;;;2.78;1.05;;;10.70;89.70;;;;;;4916477;29;20484;-86
2022/10/10 08:33:51;;;;;;;3.15;1.48;;;10.70;89.80;;;;;;4905816;29;20086;-85
2022/10/10 08:36:20;;;;;;;3.25;1.35;;;10.70;89.80;;;;;;4916984;29;20048;-88
2022/10/10 08:38:55;;;;;;;1.98;0.80;;;10.70;89.90;;;;;;4915582;29;20051;-88
2022/10/10 08:41:40;;;;;;;4.65;1.30;;;10.80;89.90;;;;;;4907173;29;20489;-85
2022/10/10 08:44:22;;;;;;;2.53;1.02;;;10.90;89.90;;;;;;4916498;29;20051;-88
2022/10/10 08:47:01;;;;;;;2.90;1.23;;;10.90;89.90;;;;;;4901650;29;20048;-89
2022/10/10 08:49:40;;;;;;;1.80;1.00;;;11.00;89.90;;;;;;4901431;29;20052;-88
2022/10/10 08:52:15;;;;;;;1.80;0.93;;;11.00;89.80;;;;;;4900979;29;20472;-88
2022/10/10 08:54:43;;;;;;;3.15;1.25;;;11.10;89.90;;;;;;4901167;29;20048;-89
2022/10/10 08:57:34;;;;;;;4.53;1.60;;;11.10;89.80;;;;;;4916560;29;20096;-88
2022/10/10 09:00:05;;;;;;;2.38;1.10;;;11.20;89.70;;;;;;4900574;29;20475;-89
2022/10/10 09:02:59;;;;;;;2.60;1.27;;;11.30;89.70;;;;;;4901168;29;20044;-88
2022/10/10 09:05:38;;;;;;;3.10;1.55;;;11.40;89.70;;;;;;4900786;29;20544;-88
2022/10/10 09:08:30;;;;;;;3.55;1.83;;;11.50;89.60;;;;;;4897421;29;20564;-88
2022/10/10 09:11:09;;;;;;;3.13;1.65;;;11.60;89.60;;;;;;4882678;29;20052;-88
2022/10/10 09:13:56;;;;;;;3.72;1.45;;;11.70;89.50;;;;;;4882252;29;20056;-88
2022/10/10 09:16:44;;;;;;;3.85;1.92;;;11.70;89.40;;;;;;4898866;29;20076;-88
2022/10/10 09:20:04;;;;;;;6.13;2.75;;;11.80;89.40;;;;;;4911585;29;20071;-89
2022/10/10 09:22:35;;;;;;;5.43;2.22;;;12.00;89.20;;;;;;4893548;29;20143;-89
2022/10/10 09:25:14;;;;;;;7.20;3.03;;;12.10;89.10;;;;;;4900856;29;20052;-88
2022/10/10 09:27:53;;;;;;;6.38;2.78;;;12.30;89.00;;;;;;4900584;29;20151;-88
2022/10/10 09:30:20;;;;;;;3.28;1.85;;;12.40;88.90;;;;;;4908486;29;20083;-88
2022/10/10 09:33:06;;;;;;;4.97;2.60;;;12.50;88.70;;;;;;4916586;29;20052;-90
2022/10/10 09:35:37;;;;;;;3.58;1.85;;;12.70;89.10;;;;;;4903572;29;20576;-89
2022/10/10 09:38:22;;;;;;;3.70;2.15;;;12.80;88.40;;;;;;4916614;29;20143;-90
2022/10/10 09:40:57;;;;;;;6.13;2.13;;;12.90;88.20;;;;;;4915945;29;20131;-89
2022/10/10 09:43:29;;;;;;;4.88;2.55;;;13.10;88.10;;;;;;4906512;29;20075;-89
2022/10/10 09:45:56;;;;;;;7.45;3.47;;;13.20;87.80;;;;;;4916341;29;20120;-88
2022/10/10 09:48:41;;;;;;;5.43;2.63;;;13.40;87.60;;;;;;4887444;29;20056;-89
2022/10/10 09:51:14;;;;;;;4.80;2.10;;;13.40;87.30;;;;;;4905032;29;20048;-90
2022/10/10 09:53:43;;;;;;;4.18;2.33;;;13.60;87.30;;;;;;4918573;29;20071;-90
2022/10/10 09:56:27;;;;;;;7.35;3.75;;;13.70;87.10;;;;;;4891754;29;20467;-88
2022/10/10 09:58:55;;;;;;;4.85;2.60;;;13.90;86.80;;;;;;4899507;29;20104;-89
2022/10/10 10:01:25;;;;;;;5.22;2.13;;;14.00;86.90;;;;;;4919926;29;20043;-89
2022/10/10 10:04:15;;;;;;;5.47;2.65;;;14.10;86.70;;;;;;4919791;29;20060;-89
2022/10/10 10:07:16;;;;;;;5.13;2.42;;;14.20;86.50;;;;;;4895995;29;20048;-89
2022/10/10 10:10:12;;;;;;;5.18;2.13;;;14.30;86.40;;;;;;4893407;29;20045;-85
2022/10/10 10:12:43;;;;;;;5.18;1.80;;;14.40;86.30;;;;;;4915909;29;20046;-94
2022/10/10 10:15:27;;;;;;;4.88;1.42;;;14.50;86.20;;;;;;4889203;29;20075;-91
2022/10/10 10:18:20;;;;;;;4.55;2.00;;;14.60;86.10;;;;;;4904422;29;20408;-92
2022/10/10 10:20:49;;;;;;;6.68;2.33;;;14.70;85.80;;;;;;4890379;29;20094;-93
2022/10/10 10:23:32;;;;;;;7.03;3.47;;;14.80;85.60;;;;;;4920062;29;20052;-89
2022/10/10 10:26:05;;;;;;;;;;;14.90;85.00;;;;;;4919894;29;20056;-92
2022/10/10 10:28:42;;;;;;;7.47;3.03;;;14.90;85.20;;;;;;4904046;29;19929;-90
2022/10/10 10:31:37;;;;;;;6.90;2.65;;;14.90;85.20;;;;;;4919631;29;20048;-90
2022/10/10 10:34:33;;;;;;;4.78;2.40;;;15.00;85.00;;;;;;4919770;29;20052;-91
2022/10/10 10:37:10;;;;;;;5.40;3.15;;;15.00;84.90;;;;;;4881545;29;20048;-91
2022/10/10 10:39:59;;;;;;;4.53;2.70;;;15.10;84.80;;;;;;4900739;29;20082;-91
2022/10/10 10:42:37;;;;;;;5.68;3.03;;;15.10;84.80;;;;;;4891175;29;20051;-90
2022/10/10 10:45:25;;;;;;;5.35;2.63;;;15.20;84.90;;;;;;4911343;29;20060;-96
2022/10/10 10:48:18;;;;;;;5.53;2.80;;;15.30;84.80;;;;;;4900291;29;20139;-90
2022/10/10 10:50:57;;;;;;;5.40;2.58;;;15.30;84.50;;;;;;4905108;29;20049;-90
2022/10/10 10:53:37;;;;;;;6.60;2.40;;;15.40;84.70;;;;;;4900085;29;20417;-84
2022/10/10 10:56:15;;;;;;;4.28;2.70;;;15.40;84.60;;;;;;4884512;29;20060;-88
2022/10/10 10:59:05;;;;;;;3.97;2.20;;;15.50;84.60;;;;;;4914662;29;20049;-89
2022/10/10 11:02:22;;;;;;;6.20;2.55;;;15.60;84.40;;;;;;4891699;29;20092;-89
2022/10/10 11:05:18;;;;;;;5.82;2.58;;;15.70;84.00;;;;;;4891021;29;20052;-86
2022/10/10 11:08:38;;;;;;;6.07;2.97;;;15.80;83.80;;;;;;4883028;29;20076;-90
2022/10/10 11:11:40;;;;;;;4.97;2.10;;;15.80;83.80;;;;;;4912881;29;20489;-83
2022/10/10 11:14:26;;;;;;;4.72;2.30;;;15.70;84.00;;;;;;4910577;29;20052;-83
2022/10/10 11:16:59;;;;;;;5.20;2.53;;;15.70;84.10;;;;;;4910596;29;20077;-84
2022/10/10 11:19:40;;;;;;;5.82;2.58;;;15.70;84.10;;;;;;4913062;29;20045;-83
2022/10/10 11:22:21;;;;;;;3.60;1.92;;;15.70;84.00;;;;;;4892525;29;20040;-87
2022/10/10 11:25:15;;;;;;;5.30;2.85;;;15.80;84.00;;;;;;4898616;29;20449;-85
2022/10/10 11:27:45;;;;;;;8.00;2.90;;;15.90;83.70;;;;;;4875175;29;20044;-91
2022/10/10 11:30:19;;;;;;;6.47;3.90;;;16.00;83.40;;;;;;4904476;29;20044;-88
2022/10/10 11:33:17;;;;;;;6.55;3.47;;;16.20;82.80;;;;;;4915011;29;20517;-89
2022/10/10 11:36:48;;;;;;;8.95;4.00;;;16.30;82.40;;;;;;4892060;29;20052;-89
2022/10/10 11:39:30;;;;;;;6.65;3.13;;;16.50;82.00;;;;;;4911288;29;20064;-90
2022/10/10 11:42:06;;;;;;;6.85;3.92;;;16.80;81.70;;;;;;4877325;29;20075;-93
2022/10/10 11:44:44;;;;;;;5.75;3.25;;;17.00;80.90;;;;;;4896681;29;20044;-87
2022/10/10 11:47:14;;;;;;;5.55;2.78;;;17.10;81.10;;;;;;4904579;29;20052;-91
2022/10/10 11:50:02;;;;;;;4.30;2.20;;;17.10;80.70;;;;;;4900794;29;20075;-92
2022/10/10 11:52:38;;;;;;;8.50;3.55;;;17.20;80.60;;;;;;4908180;29;20141;-94
2022/10/10 11:55:27;;;;;;;6.28;3.53;;;17.10;80.20;;;;;;4896290;29;20060;-93
2022/10/10 11:58:06;;;;;;;7.00;2.90;;;17.10;80.30;;;;;;4912407;29;20076;-91
2022/10/10 12:00:42;;;;;;;4.82;2.33;;;17.00;80.70;;;;;;4904119;29;20112;-90
2022/10/10 12:03:10;;;;;;;6.30;2.65;;;17.00;81.10;;;;;;4882496;29;20330;-91
2022/10/10 12:05:41;;;;;;;6.13;3.33;;;17.00;80.90;;;;;;4911578;29;20056;-90
2022/10/10 12:08:33;;;;;;;7.25;3.28;;;17.10;80.60;;;;;;4907776;29;20053;-91
2022/10/10 12:11:23;;;;;;;6.03;3.22;;;17.20;80.30;;;;;;4897279;29;20072;-91
2022/10/10 12:14:00;;;;;;;6.15;3.33;;;17.40;80.20;;;;;;4904828;29;20048;-90
2022/10/10 12:16:31;;;;;;;6.65;2.50;;;17.40;79.80;;;;;;4912327;29;20052;-91
2022/10/10 12:19:05;;;;;;;4.85;2.47;;;17.50;80.10;;;;;;4912353;29;20101;-90
2022/10/10 12:21:55;;;;;;;5.57;2.85;;;17.40;80.10;;;;;;4905485;29;20041;-92
2022/10/10 12:24:26;;;;;;;5.07;3.15;;;17.40;80.10;;;;;;4893628;29;20521;-90
2022/10/10 12:26:53;;;;;;;5.35;2.58;;;17.40;80.10;;;;;;4897194;29;20056;-92
2022/10/10 12:30:08;;;;;;;7.38;3.13;;;17.50;80.20;;;;;;4894143;29;20045;-91
2022/10/10 12:32:37;;;;;;;6.85;3.45;;;17.60;79.80;;;;;;4889898;29;20044;-92
2022/10/10 12:35:34;;;;;;;5.88;3.08;;;17.50;79.70;;;;;;4901561;29;20049;-91
2022/10/10 12:38:04;;;;;;;5.18;2.60;;;17.40;79.90;;;;;;4908907;29;20111;-90
2022/10/10 12:40:54;;;;;;;7.43;2.97;;;17.40;80.20;;;;;;4893542;29;20132;-91
2022/10/10 12:43:44;;;;;;;7.65;2.80;;;17.40;80.40;;;;;;4896690;29;20437;-89
2022/10/10 12:46:28;;;;;;;4.93;2.40;;;17.30;80.50;;;;;;4915795;29;20082;-91
2022/10/10 12:49:24;;;;;;;8.35;2.95;;;17.20;80.80;;;;;;4914944;29;20091;-91
2022/10/10 12:52:18;;;;;;;5.15;2.58;;;17.10;81.00;;;;;;4899213;29;20053;-91
2022/10/10 12:54:46;;;;;;;4.53;2.63;;;17.10;81.20;;;;;;4890076;29;20060;-88
2022/10/10 12:57:16;;;;;;;5.00;2.45;;;17.00;81.40;;;;;;4915525;29;20099;-89
2022/10/10 12:59:44;;;;;;;5.10;3.17;;;16.90;81.60;;;;;;4885873;29;20054;-90
2022/10/10 13:02:20;;;;;;;7.63;3.03;;;16.80;81.80;;;;;;4899633;29;20048;-86
2022/10/10 13:04:55;;;;;;;7.75;3.30;;;16.80;82.10;;;;;;4906124;29;20151;-82
2022/10/10 13:07:25;;;;;;;9.57;3.40;;;16.70;82.50;;;;;;4887848;29;20044;-85
2022/10/10 13:10:02;;;;;;;7.70;3.90;;;16.50;83.00;;;;;;4898345;29;20140;-84
2022/10/10 13:12:31;;;;;;;6.43;2.83;;;16.30;83.90;;;;;;4903795;29;20048;-85
2022/10/10 13:15:01;;;;;;;8.63;4.25;;;16.10;84.70;;;;;;4884343;29;20505;-84
2022/10/10 13:17:39;;;;;;;7.25;3.83;;;16.00;85.20;;;;;;4897324;29;20139;-92
2022/10/10 13:20:27;;;;;;;7.43;3.72;;;15.90;85.70;;;;;;4897956;29;20477;-90
2022/10/10 13:23:12;;;;;;;7.55;3.97;;;15.80;86.00;;;;;;4898814;29;20068;-90
2022/10/10 13:25:49;;;;;;;10.77;5.13;;;15.70;86.50;;;;;;4913246;29;20083;-89
2022/10/10 13:28:18;;;;;;;9.30;4.65;;;15.70;86.80;;;;;;4898146;29;20183;-86